createdAt,value
2023-02-14T00:00:32.623Z,972
2023-02-14T00:01:45.364Z,971
2023-02-14T00:02:49.175Z,970
2023-02-14T00:04:01.946Z,969
2023-02-14T00:05:15.617Z,969
2023-02-14T00:06:28.348Z,968
2023-02-14T00:07:32.109Z,968
2023-02-14T00:08:44.934Z,968
2023-02-14T00:09:58.595Z,969
2023-02-14T00:11:01.395Z,971
2023-02-14T00:12:15.136Z,973
2023-02-14T00:13:27.906Z,972
2023-02-14T00:14:31.653Z,972
2023-02-14T00:15:44.461Z,974
2023-02-14T00:16:58.136Z,972
2023-02-14T00:18:00.944Z,971
2023-02-14T00:19:15.147Z,971
2023-02-14T00:20:27.882Z,968
2023-02-14T00:21:41.636Z,968
2023-02-14T00:22:44.388Z,967
2023-02-14T00:23:58.134Z,966
2023-02-14T00:25:10.842Z,968
2023-02-14T00:26:14.653Z,970
2023-02-14T00:27:27.369Z,969
2023-02-14T00:28:41.154Z,969
2023-02-14T00:29:43.917Z,972
2023-02-14T00:30:58.232Z,968
2023-02-14T00:32:11.223Z,967
2023-02-14T00:33:14.646Z,966
2023-02-14T00:34:27.370Z,967
2023-02-14T00:35:40.658Z,969
2023-02-14T00:36:53.358Z,970
2023-02-14T00:37:57.129Z,970
2023-02-14T00:39:09.876Z,967
2023-02-14T00:40:23.639Z,969
2023-02-14T00:41:26.408Z,967
2023-02-14T00:42:39.631Z,969
2023-02-14T00:43:52.325Z,969
2023-02-14T00:45:06.663Z,969
2023-02-14T00:46:09.464Z,969
2023-02-14T00:47:23.166Z,969
2023-02-14T00:48:25.890Z,970
2023-02-14T00:49:53.225Z,968
2023-02-14T00:50:55.984Z,970
2023-02-14T00:51:59.279Z,969
2023-02-14T00:53:11.975Z,966
2023-02-14T00:54:25.809Z,968
2023-02-14T00:55:48.535Z,968
2023-02-14T00:57:02.317Z,967
2023-02-14T00:57:55.130Z,962
2023-02-14T00:58:57.841Z,963
2023-02-14T01:00:11.303Z,963
2023-02-14T01:01:24.037Z,960
2023-02-14T01:02:37.893Z,958
2023-02-14T01:03:40.731Z,954
2023-02-14T01:04:54.293Z,958
2023-02-14T01:06:07.011Z,959
2023-02-14T01:07:10.847Z,960
2023-02-14T01:08:23.569Z,957
2023-02-14T01:09:37.292Z,956
2023-02-14T01:10:40.050Z,956
2023-02-14T01:11:53.803Z,957
2023-02-14T01:13:06.474Z,955
2023-02-14T01:14:19.805Z,954
2023-02-14T01:15:22.530Z,954
2023-02-14T01:16:36.383Z,956
2023-02-14T01:17:49.138Z,958
2023-02-14T01:18:52.793Z,954
2023-02-14T01:20:05.519Z,953
2023-02-14T01:21:18.821Z,953
2023-02-14T01:22:21.574Z,953
2023-02-14T01:23:55.284Z,952
2023-02-14T01:24:48.095Z,951
2023-02-14T01:26:01.790Z,951
2023-02-14T01:27:04.618Z,953
2023-02-14T01:28:18.806Z,949
2023-02-14T01:29:31.512Z,948
2023-02-14T01:30:35.324Z,945
2023-02-14T01:31:48.037Z,943
2023-02-14T01:33:01.279Z,944
2023-02-14T01:34:04.022Z,942
2023-02-14T01:35:17.292Z,942
2023-02-14T01:36:29.995Z,941
2023-02-14T01:37:43.298Z,942
2023-02-14T01:38:46.090Z,943
2023-02-14T01:39:59.810Z,943
2023-02-14T01:41:12.566Z,945
2023-02-14T01:42:16.320Z,947
2023-02-14T01:43:29.023Z,945
2023-02-14T01:44:42.292Z,943
2023-02-14T01:46:15.001Z,943
2023-02-14T01:46:58.798Z,945
2023-02-14T01:48:11.514Z,948
2023-02-14T01:49:25.275Z,946
2023-02-14T01:50:28.027Z,944
2023-02-14T01:51:41.300Z,942
2023-02-14T01:52:54.011Z,941
2023-02-14T01:53:57.798Z,941
2023-02-14T01:55:10.499Z,942
2023-02-14T01:56:23.804Z,941
2023-02-14T01:57:36.520Z,940
2023-02-14T01:58:40.330Z,942
2023-02-14T01:59:53.015Z,940
2023-02-14T02:01:06.323Z,939
2023-02-14T02:02:09.128Z,938
2023-02-14T02:03:22.824Z,939
2023-02-14T02:04:35.601Z,934
2023-02-14T02:05:39.308Z,934
2023-02-14T02:06:52.040Z,931
2023-02-14T02:08:05.835Z,928
2023-02-14T02:09:18.532Z,928
2023-02-14T02:10:22.313Z,927
2023-02-14T02:11:35.046Z,927
2023-02-14T02:12:48.352Z,925
2023-02-14T02:13:51.197Z,926
2023-02-14T02:15:05.154Z,924
2023-02-14T02:16:17.917Z,923
2023-02-14T02:17:21.811Z,922
2023-02-14T02:18:34.488Z,920
2023-02-14T02:19:47.845Z,921
2023-02-14T02:21:00.841Z,920
2023-02-14T02:22:04.831Z,919
2023-02-14T02:23:17.592Z,920
2023-02-14T02:24:31.835Z,921
2023-02-14T02:25:34.588Z,924
2023-02-14T02:26:48.324Z,923
2023-02-14T02:28:01.038Z,924
2023-02-14T02:29:04.832Z,922
2023-02-14T02:30:37.693Z,923
2023-02-14T02:31:31.545Z,924
2023-02-14T02:32:34.670Z,922
2023-02-14T02:33:48.326Z,922
2023-02-14T02:35:01.081Z,921
2023-02-14T02:36:04.831Z,922
2023-02-14T02:37:17.536Z,921
2023-02-14T02:38:30.846Z,920
2023-02-14T02:39:43.541Z,921
2023-02-14T02:40:46.830Z,920
2023-02-14T02:41:59.548Z,918
2023-02-14T02:43:12.856Z,918
2023-02-14T02:44:15.815Z,916
2023-02-14T02:45:29.321Z,916
2023-02-14T02:46:42.047Z,915
2023-02-14T02:47:55.344Z,913
2023-02-14T02:48:58.077Z,913
2023-02-14T02:50:12.635Z,913
2023-02-14T02:51:25.312Z,911
2023-02-14T02:52:28.828Z,910
2023-02-14T02:53:41.562Z,911
2023-02-14T02:54:54.854Z,911
2023-02-14T02:55:57.622Z,911
2023-02-14T02:57:21.427Z,908
2023-02-14T02:58:24.308Z,909
2023-02-14T02:59:47.837Z,907
2023-02-14T03:00:40.838Z,905
2023-02-14T03:01:54.334Z,903
2023-02-14T03:03:07.053Z,903
2023-02-14T03:04:10.875Z,903
2023-02-14T03:05:23.586Z,903
2023-02-14T03:06:37.333Z,903
2023-02-14T03:07:40.134Z,903
2023-02-14T03:08:53.848Z,901
2023-02-14T03:10:06.574Z,900
2023-02-14T03:11:20.345Z,898
2023-02-14T03:12:23.133Z,902
2023-02-14T03:13:36.834Z,899
2023-02-14T03:14:49.534Z,897
2023-02-14T03:15:53.464Z,898
2023-02-14T03:17:06.269Z,895
2023-02-14T03:18:19.862Z,895
2023-02-14T03:19:22.628Z,896
2023-02-14T03:20:36.374Z,895
2023-02-14T03:21:49.088Z,896
2023-02-14T03:22:52.844Z,895
2023-02-14T03:24:05.586Z,895
2023-02-14T03:25:18.872Z,890
2023-02-14T03:26:21.627Z,890
2023-02-14T03:27:35.384Z,887
2023-02-14T03:28:48.117Z,886
2023-02-14T03:30:01.878Z,882
2023-02-14T03:31:04.951Z,879
2023-02-14T03:32:19.071Z,880
2023-02-14T03:33:31.871Z,879
2023-02-14T03:34:35.345Z,877
2023-02-14T03:35:48.052Z,877
2023-02-14T03:37:01.891Z,878
2023-02-14T03:38:04.682Z,876
2023-02-14T03:39:18.361Z,876
2023-02-14T03:40:31.109Z,876
2023-02-14T03:41:44.865Z,878
2023-02-14T03:42:47.653Z,878
2023-02-14T03:44:01.363Z,881
2023-02-14T03:45:14.190Z,880
2023-02-14T03:46:18.402Z,879
2023-02-14T03:47:31.283Z,883
2023-02-14T03:48:44.844Z,882
2023-02-14T03:49:47.692Z,878
2023-02-14T03:51:01.669Z,878
2023-02-14T03:52:14.528Z,879
2023-02-14T03:53:18.415Z,878
2023-02-14T03:54:31.167Z,876
2023-02-14T03:55:44.949Z,874
2023-02-14T03:56:47.751Z,875
2023-02-14T03:58:01.378Z,876
2023-02-14T03:59:14.260Z,873
2023-02-14T04:00:27.831Z,874
2023-02-14T04:01:30.712Z,873
2023-02-14T04:02:44.349Z,879
2023-02-14T04:03:57.183Z,877
2023-02-14T04:05:00.881Z,878
2023-02-14T04:06:13.628Z,875
2023-02-14T04:07:27.856Z,873
2023-02-14T04:08:30.933Z,872
2023-02-14T04:09:44.353Z,874
2023-02-14T04:10:57.499Z,874
2023-02-14T04:12:01.353Z,875
2023-02-14T04:13:14.134Z,874
2023-02-14T04:14:27.841Z,873
2023-02-14T04:15:30.624Z,874
2023-02-14T04:16:44.331Z,872
2023-02-14T04:17:57.076Z,874
2023-02-14T04:19:00.870Z,875
2023-02-14T04:20:13.722Z,875
2023-02-14T04:21:27.339Z,875
2023-02-14T04:22:40.137Z,875
2023-02-14T04:23:43.854Z,874
2023-02-14T04:24:56.614Z,874
2023-02-14T04:26:10.387Z,873
2023-02-14T04:27:13.220Z,875
2023-02-14T04:28:26.867Z,875
2023-02-14T04:29:40.530Z,877
2023-02-14T04:30:44.382Z,878
2023-02-14T04:31:57.247Z,882
2023-02-14T04:33:10.860Z,887
2023-02-14T04:34:13.880Z,895
2023-02-14T04:35:27.347Z,912
2023-02-14T04:36:40.127Z,960
2023-02-14T04:37:53.942Z,973
2023-02-14T04:38:56.731Z,987
2023-02-14T04:40:10.383Z,991
2023-02-14T04:41:23.141Z,997
2023-02-14T04:42:26.887Z,999
2023-02-14T04:43:39.658Z,1002
2023-02-14T04:44:53.364Z,1003
2023-02-14T04:45:56.341Z,1005
2023-02-14T04:47:09.862Z,1008
2023-02-14T04:48:22.615Z,1011
2023-02-14T04:49:36.386Z,1011
2023-02-14T04:50:39.183Z,1012
2023-02-14T04:51:52.841Z,1014
2023-02-14T04:53:05.607Z,1014
2023-02-14T04:54:09.399Z,1015
2023-02-14T04:55:22.161Z,1016
2023-02-14T04:56:35.872Z,1015
2023-02-14T04:57:38.642Z,1017
2023-02-14T04:58:52.352Z,1017
2023-02-14T05:00:05.104Z,1017
2023-02-14T05:01:09.452Z,1014
2023-02-14T05:02:22.382Z,1015
2023-02-14T05:03:36.386Z,1016
2023-02-14T05:04:39.219Z,1018
2023-02-14T05:05:52.839Z,1023
2023-02-14T05:07:05.605Z,1025
2023-02-14T05:08:09.357Z,1026
2023-02-14T05:09:22.145Z,1028
2023-02-14T05:10:35.932Z,1033
2023-02-14T05:11:38.729Z,1036
2023-02-14T05:12:52.856Z,1044
2023-02-14T05:14:05.583Z,1052
2023-02-14T05:15:19.386Z,1061
2023-02-14T05:16:22.197Z,1079
2023-02-14T05:17:55.881Z,1105
2023-02-14T05:18:48.884Z,1139
2023-02-14T05:19:51.676Z,1179
2023-02-14T05:21:05.411Z,1195
2023-02-14T05:22:18.602Z,1201
2023-02-14T05:23:22.357Z,1201
2023-02-14T05:24:35.099Z,1207
2023-02-14T05:25:48.885Z,1207
2023-02-14T05:26:51.683Z,1207
2023-02-14T05:28:05.351Z,1204
2023-02-14T05:29:18.071Z,1206
2023-02-14T05:30:32.055Z,1209
2023-02-14T05:31:45.058Z,1210
2023-02-14T05:32:50.875Z,1215
2023-02-14T05:33:53.630Z,1215
2023-02-14T05:35:07.424Z,1219
2023-02-14T05:36:20.234Z,1224
2023-02-14T05:37:36.375Z,1226
2023-02-14T05:38:39.191Z,1226
2023-02-14T05:39:52.918Z,1228
2023-02-14T05:42:14.785Z,1230
2023-02-14T05:43:18.482Z,1233
2023-02-14T05:44:32.000Z,1234
2023-02-14T05:45:44.916Z,1236
2023-02-14T05:46:48.878Z,1237
2023-02-14T05:48:01.617Z,1236
2023-02-14T05:49:15.421Z,1238
2023-02-14T05:50:18.183Z,1242
2023-02-14T05:51:32.057Z,1243
2023-02-14T05:52:45.026Z,1244
2023-02-14T05:53:48.890Z,1247
2023-02-14T05:55:01.656Z,1252
2023-02-14T05:56:15.601Z,1253
2023-02-14T05:57:18.410Z,1253
2023-02-14T05:58:31.906Z,1256
2023-02-14T05:59:44.794Z,1256
2023-02-14T06:00:48.404Z,1255
2023-02-14T06:02:01.661Z,1256
2023-02-14T06:03:16.395Z,1241
2023-02-14T06:04:30.695Z,1243
2023-02-14T06:05:35.373Z,1237
2023-02-14T06:06:49.490Z,1225
2023-02-14T06:07:53.701Z,1210
2023-02-14T06:09:07.271Z,1191
2023-02-14T06:10:10.943Z,1106
2023-02-14T06:11:23.973Z,952
2023-02-14T06:12:38.415Z,912
2023-02-14T06:13:41.288Z,829
2023-02-14T06:14:54.902Z,754
2023-02-14T06:16:07.808Z,737
2023-02-14T06:17:11.888Z,727
2023-02-14T06:18:24.700Z,713
2023-02-14T06:19:38.376Z,713
2023-02-14T06:20:41.222Z,712
2023-02-14T06:21:54.890Z,710
2023-02-14T06:23:07.754Z,710
2023-02-14T06:24:21.416Z,710
2023-02-14T06:25:24.188Z,710
2023-02-14T06:26:37.927Z,712
2023-02-14T06:27:50.746Z,712
2023-02-14T06:28:54.399Z,700
2023-02-14T06:30:07.089Z,688
2023-02-14T06:31:20.574Z,662
2023-02-14T06:32:33.334Z,599
2023-02-14T06:33:38.405Z,572
2023-02-14T06:34:51.156Z,572
2023-02-14T06:36:04.396Z,584
2023-02-14T06:37:07.074Z,599
2023-02-14T06:38:20.402Z,615
2023-02-14T06:39:52.966Z,632
2023-02-14T06:40:36.404Z,638
2023-02-14T06:41:48.970Z,648
2023-02-14T06:43:02.405Z,656
2023-02-14T06:44:15.067Z,662
2023-02-14T06:45:18.435Z,668
2023-02-14T06:46:31.150Z,675
2023-02-14T06:47:44.913Z,680
2023-02-14T06:48:47.497Z,689
2023-02-14T06:50:00.926Z,690
2023-02-14T06:51:13.536Z,694
2023-02-14T06:52:27.435Z,698
2023-02-14T06:53:30.216Z,703
2023-02-14T06:54:43.407Z,709
2023-02-14T06:55:55.905Z,712
2023-02-14T06:56:59.439Z,714
2023-02-14T06:58:11.902Z,723
2023-02-14T06:59:25.444Z,737
2023-02-14T07:00:27.973Z,745
2023-02-14T07:01:41.482Z,758
2023-02-14T07:02:54.116Z,761
2023-02-14T07:04:07.414Z,761
2023-02-14T07:05:19.893Z,768
2023-02-14T07:06:23.441Z,774
2023-02-14T07:08:05.683Z,780
2023-02-14T07:08:39.397Z,778
2023-02-14T07:10:01.682Z,781
2023-02-14T07:11:04.904Z,781
2023-02-14T07:12:17.335Z,782
2023-02-14T07:13:20.427Z,783
2023-02-14T07:14:32.797Z,783
2023-02-14T07:15:45.974Z,786
2023-02-14T07:16:48.572Z,786
2023-02-14T07:18:01.954Z,787
2023-02-14T07:19:14.487Z,783
2023-02-14T07:20:28.003Z,783
2023-02-14T07:21:30.485Z,784
2023-02-14T07:22:43.925Z,789
2023-02-14T07:23:56.289Z,791
2023-02-14T07:24:59.472Z,791
2023-02-14T07:26:11.870Z,793
2023-02-14T07:27:24.915Z,793
2023-02-14T07:28:37.379Z,788
2023-02-14T07:29:40.451Z,788
2023-02-14T07:30:52.948Z,789
2023-02-14T07:32:06.676Z,791
2023-02-14T07:33:09.319Z,794
2023-02-14T07:34:22.472Z,796
2023-02-14T07:35:34.850Z,798
2023-02-14T07:36:47.976Z,801
2023-02-14T07:37:50.461Z,804
2023-02-14T07:39:03.442Z,808
2023-02-14T07:40:15.809Z,808
2023-02-14T07:41:29.475Z,811
2023-02-14T07:42:32.046Z,812
2023-02-14T07:43:45.461Z,816
2023-02-14T07:44:57.838Z,817
2023-02-14T07:46:00.993Z,818
2023-02-14T07:47:13.458Z,817
2023-02-14T07:48:27.190Z,818
2023-02-14T07:49:30.728Z,821
2023-02-14T07:50:43.967Z,822
2023-02-14T07:51:56.207Z,826
2023-02-14T07:53:09.467Z,828
2023-02-14T07:54:11.946Z,831
2023-02-14T07:55:24.977Z,831
2023-02-14T07:56:37.332Z,834
2023-02-14T07:57:40.450Z,838
2023-02-14T07:58:52.788Z,840
2023-02-14T08:00:05.956Z,840
2023-02-14T08:01:19.329Z,838
2023-02-14T08:02:22.961Z,840
2023-02-14T08:03:45.225Z,844
2023-02-14T08:04:48.506Z,849
2023-02-14T08:05:50.917Z,856
2023-02-14T08:07:04.054Z,864
2023-02-14T08:08:16.476Z,863
2023-02-14T08:09:29.452Z,869
2023-02-14T08:10:31.879Z,874
2023-02-14T08:11:44.999Z,879
2023-02-14T08:12:57.439Z,882
2023-02-14T08:14:00.488Z,891
2023-02-14T08:15:12.810Z,891
2023-02-14T08:16:25.971Z,894
2023-02-14T08:17:48.251Z,895
2023-02-14T08:18:41.486Z,899
2023-02-14T08:19:53.798Z,902
2023-02-14T08:21:06.982Z,898
2023-02-14T08:22:19.334Z,900
2023-02-14T08:23:23.035Z,897
2023-02-14T08:24:35.397Z,897
2023-02-14T08:25:48.454Z,896
2023-02-14T08:26:50.896Z,898
2023-02-14T08:28:04.009Z,897
2023-02-14T08:29:26.255Z,897
2023-02-14T08:30:29.564Z,899
2023-02-14T08:31:36.069Z,901
2023-02-14T08:32:49.559Z,902
2023-02-14T08:33:52.109Z,907
2023-02-14T08:35:26.088Z,911
2023-02-14T08:36:18.796Z,915
2023-02-14T08:37:21.181Z,921
2023-02-14T08:39:51.162Z,926
2023-02-14T08:39:54.275Z,929
2023-02-14T08:40:56.630Z,930
2023-02-14T08:41:59.964Z,930
2023-02-14T08:43:12.251Z,933
2023-02-14T08:44:25.497Z,934
2023-02-14T08:45:58.014Z,935
2023-02-14T08:46:41.619Z,933
2023-02-14T08:47:53.931Z,934
2023-02-14T08:49:07.011Z,933
2023-02-14T08:50:09.357Z,936
2023-02-14T08:51:22.572Z,940
2023-02-14T08:52:34.864Z,944
2023-02-14T08:53:48.092Z,945
2023-02-14T08:54:50.464Z,946
2023-02-14T08:56:03.493Z,947
2023-02-14T08:57:16.081Z,950
2023-02-14T08:58:19.158Z,951
2023-02-14T08:59:31.426Z,949
2023-02-14T09:00:44.566Z,951
2023-02-14T09:01:56.904Z,951
2023-02-14T09:02:59.974Z,953
2023-02-14T09:04:12.249Z,955
2023-02-14T09:05:25.489Z,955
2023-02-14T09:06:37.821Z,956
2023-02-14T09:07:40.995Z,957
2023-02-14T09:08:53.301Z,961
2023-02-14T09:10:06.517Z,962
2023-02-14T09:11:08.938Z,965
2023-02-14T09:12:22.510Z,967
2023-02-14T09:13:34.808Z,971
2023-02-14T09:14:38.496Z,974
2023-02-14T09:16:02.216Z,976
2023-02-14T09:17:36.563Z,979
2023-02-14T09:18:09.294Z,981
2023-02-14T09:19:22.161Z,982
2023-02-14T09:20:35.032Z,982
2023-02-14T09:21:37.335Z,983
2023-02-14T09:22:52.027Z,984
2023-02-14T09:24:14.139Z,981
2023-02-14T09:25:07.525Z,981
2023-02-14T09:26:39.505Z,983
2023-02-14T09:27:32.591Z,987
2023-02-14T09:28:44.945Z,989
2023-02-14T09:29:48.013Z,993
2023-02-14T09:31:01.169Z,992
2023-02-14T09:32:15.151Z,991
2023-02-14T09:33:17.530Z,993
2023-02-14T09:34:30.524Z,993
2023-02-14T09:35:42.695Z,996
2023-02-14T09:36:55.513Z,1000
2023-02-14T09:37:57.751Z,999
2023-02-14T09:39:10.976Z,1000
2023-02-14T09:40:23.153Z,1003
2023-02-14T09:41:36.029Z,1003
2023-02-14T09:42:38.281Z,1006
2023-02-14T09:43:51.006Z,1009
2023-02-14T09:45:03.182Z,1009
2023-02-14T09:46:06.561Z,1010
2023-02-14T09:47:18.774Z,1011
2023-02-14T09:48:31.505Z,1014
2023-02-14T09:49:43.718Z,1012
2023-02-14T09:50:47.037Z,1014
2023-02-14T09:51:59.243Z,1016
2023-02-14T09:53:12.027Z,1017
2023-02-14T09:54:14.293Z,1017
2023-02-14T09:55:27.009Z,1020
2023-02-14T09:56:50.595Z,1021
2023-02-14T09:57:44.524Z,1023
2023-02-14T09:58:56.655Z,1023
2023-02-14T10:00:10.054Z,1024
2023-02-14T10:01:22.806Z,1022
2023-02-14T10:02:26.055Z,1022
2023-02-14T10:03:38.126Z,1021
2023-02-14T10:04:51.806Z,1023
2023-02-14T10:05:54.433Z,1023
2023-02-14T10:07:38.033Z,1023
2023-02-14T10:08:20.516Z,1024
2023-02-14T10:09:23.011Z,1024
2023-02-14T10:10:38.089Z,1023
2023-02-14T10:11:41.882Z,1025
2023-02-14T10:12:55.034Z,1026
2023-02-14T10:14:07.109Z,1027
2023-02-14T10:15:20.045Z,1029
2023-02-14T10:16:22.278Z,1031
2023-02-14T10:17:35.513Z,1033
2023-02-14T10:18:57.470Z,1035
2023-02-14T10:20:00.489Z,1038
2023-02-14T10:21:02.999Z,1038
2023-02-14T10:22:16.016Z,1042
2023-02-14T10:23:28.148Z,1043
2023-02-14T10:25:59.322Z,1047
2023-02-14T10:26:51.682Z,1050
2023-02-14T10:29:06.458Z,1054
2023-02-14T10:29:09.521Z,1054
2023-02-14T10:30:21.654Z,1054
2023-02-14T10:31:34.501Z,1057
2023-02-14T10:32:46.786Z,1059
2023-02-14T10:33:50.226Z,1063
2023-02-14T10:35:02.285Z,1062
2023-02-14T10:36:14.947Z,1069
2023-02-14T10:37:27.006Z,1068
2023-02-14T10:38:29.917Z,1069
2023-02-14T10:39:41.959Z,1069
2023-02-14T10:40:54.949Z,1069
2023-02-14T10:41:57.324Z,1069
2023-02-14T10:43:30.965Z,1070
2023-02-14T10:44:23.303Z,1071
2023-02-14T10:45:35.945Z,1072
2023-02-14T10:46:38.173Z,1071
2023-02-14T10:47:50.977Z,1069
2023-02-14T10:49:12.887Z,1071
2023-02-14T10:50:15.937Z,1073
2023-02-14T10:51:18.071Z,1071
2023-02-14T10:52:30.970Z,1072
2023-02-14T10:53:42.996Z,1072
2023-02-14T10:54:48.265Z,1072
2023-02-14T10:56:20.056Z,1072
2023-02-14T10:57:13.424Z,1074
2023-02-14T10:58:15.543Z,1071
2023-02-14T10:59:47.983Z,1072
2023-02-14T11:00:40.244Z,1075
2023-02-14T11:01:52.936Z,1075
2023-02-14T11:02:55.068Z,1075
2023-02-14T11:04:09.439Z,1076
2023-02-14T11:05:22.422Z,1076
2023-02-14T11:06:25.444Z,1075
2023-02-14T11:07:37.428Z,1077
2023-02-14T11:08:50.453Z,1080
2023-02-14T11:10:02.460Z,1080
2023-02-14T11:11:05.468Z,1083
2023-02-14T11:12:17.493Z,1084
2023-02-14T11:13:30.472Z,1085
2023-02-14T11:14:32.772Z,1084
2023-02-14T11:15:45.476Z,1086
2023-02-14T11:16:57.409Z,1087
2023-02-14T11:18:10.469Z,1088
2023-02-14T11:19:12.626Z,1091
2023-02-14T11:20:25.432Z,1091
2023-02-14T11:21:37.409Z,1095
2023-02-14T11:23:02.515Z,1095
2023-02-14T11:23:54.824Z,1096
2023-02-14T11:25:07.466Z,1097
2023-02-14T11:26:19.459Z,1096
2023-02-14T11:27:22.437Z,1097
2023-02-14T11:28:34.440Z,1098
2023-02-14T11:29:47.463Z,1097
2023-02-14T11:30:49.647Z,1096
2023-02-14T11:32:02.481Z,1094
2023-02-14T11:33:14.556Z,1091
2023-02-14T11:34:27.454Z,1087
2023-02-14T11:35:29.658Z,1087
2023-02-14T11:36:42.480Z,1084
2023-02-14T11:37:54.465Z,1079
2023-02-14T11:39:07.477Z,1079
2023-02-14T11:40:09.623Z,1076
2023-02-14T11:41:24.423Z,1072
2023-02-14T11:42:27.334Z,1071
2023-02-14T11:43:39.976Z,1067
2023-02-14T11:44:51.983Z,1063
2023-02-14T11:46:05.009Z,1060
2023-02-14T11:47:08.575Z,1056
2023-02-14T11:48:36.237Z,1055
2023-02-14T11:49:29.400Z,1049
2023-02-14T11:50:41.974Z,1047
2023-02-14T11:51:54.150Z,1037
2023-02-14T11:52:57.470Z,1042
2023-02-14T11:54:09.506Z,1037
2023-02-14T11:55:22.945Z,1032
2023-02-14T11:56:25.032Z,1031
2023-02-14T11:57:37.962Z,1030
2023-02-14T11:58:49.928Z,1026
2023-02-14T12:00:02.464Z,1023
2023-02-14T12:01:04.629Z,1020
2023-02-14T12:02:17.573Z,1014
2023-02-14T12:03:30.136Z,1011
2023-02-14T12:04:38.234Z,1009
2023-02-14T12:05:46.951Z,1003
2023-02-14T12:06:59.449Z,1001
2023-02-14T12:08:11.602Z,996
2023-02-14T12:09:14.992Z,988
2023-02-14T12:10:27.078Z,979
2023-02-14T12:11:40.517Z,961
2023-02-14T12:12:42.756Z,951
2023-02-14T12:13:55.464Z,959
2023-02-14T12:15:07.340Z,957
2023-02-14T12:16:19.967Z,950
2023-02-14T12:17:22.013Z,957
2023-02-14T12:18:34.967Z,965
2023-02-14T12:19:47.003Z,970
2023-02-14T12:21:00.204Z,975
2023-02-14T12:22:02.688Z,977
2023-02-14T12:23:15.481Z,974
2023-02-14T12:24:27.333Z,976
2023-02-14T12:25:29.963Z,966
2023-02-14T12:26:41.901Z,961
2023-02-14T12:27:54.467Z,955
2023-02-14T12:29:06.327Z,955
2023-02-14T12:30:09.609Z,952
2023-02-14T12:31:21.765Z,957
2023-02-14T12:32:34.658Z,962
2023-02-14T12:33:48.411Z,963
2023-02-14T12:34:52.489Z,965
2023-02-14T12:36:04.484Z,969
2023-02-14T12:37:07.496Z,963
2023-02-14T12:38:19.411Z,961
2023-02-14T12:39:31.980Z,959
2023-02-14T12:40:43.892Z,964
2023-02-14T12:41:46.958Z,968
2023-02-14T12:42:58.885Z,970
2023-02-14T12:44:11.615Z,972
2023-02-14T12:45:23.522Z,975
2023-02-14T12:47:38.178Z,968
2023-02-14T12:48:50.983Z,972
2023-02-14T12:50:02.822Z,975
2023-02-14T12:51:05.511Z,978
2023-02-14T12:52:17.475Z,983
2023-02-14T12:53:30.520Z,985
2023-02-14T12:54:42.407Z,986
2023-02-14T12:55:45.466Z,989
2023-02-14T12:56:57.348Z,990
2023-02-14T12:58:09.993Z,993
2023-02-14T12:59:12.908Z,992
2023-02-14T13:00:26.020Z,990
2023-02-14T13:01:39.270Z,993
2023-02-14T13:02:42.559Z,992
2023-02-14T13:03:55.697Z,995
2023-02-14T13:05:08.473Z,997
2023-02-14T13:06:10.508Z,999
2023-02-14T13:07:22.980Z,1004
2023-02-14T13:08:34.857Z,1008
2023-02-14T13:09:47.528Z,1008
2023-02-14T13:10:49.514Z,1009
2023-02-14T13:12:01.992Z,1009
2023-02-14T13:13:13.861Z,1005
2023-02-14T13:14:26.543Z,1004
2023-02-14T13:15:28.618Z,1003
2023-02-14T13:16:41.504Z,1000
2023-02-14T13:17:53.645Z,998
2023-02-14T13:19:06.491Z,996
2023-02-14T13:20:08.519Z,991
2023-02-14T13:21:21.005Z,988
2023-02-14T13:22:32.816Z,982
2023-02-14T13:23:45.519Z,976
2023-02-14T13:24:47.559Z,981
2023-02-14T13:26:00.045Z,971
2023-02-14T13:27:11.945Z,965
2023-02-14T13:28:24.520Z,962
2023-02-14T13:29:27.190Z,960
2023-02-14T13:30:40.156Z,950
2023-02-14T13:31:52.194Z,947
2023-02-14T13:32:55.023Z,942
2023-02-14T13:34:06.851Z,933
2023-02-14T13:35:19.482Z,933
2023-02-14T13:36:31.319Z,931
2023-02-14T13:37:33.985Z,923
2023-02-14T13:38:45.908Z,918
2023-02-14T13:39:58.495Z,910
2023-02-14T13:41:10.312Z,910
2023-02-14T13:42:13.001Z,907
2023-02-14T13:43:24.826Z,910
2023-02-14T13:44:37.506Z,908
2023-02-14T13:45:49.335Z,912
2023-02-14T13:46:52.119Z,917
2023-02-14T13:48:04.104Z,922
2023-02-14T13:49:16.494Z,925
2023-02-14T13:50:28.270Z,928
2023-02-14T13:51:31.504Z,931
2023-02-14T13:52:43.447Z,932
2023-02-14T13:53:56.003Z,930
2023-02-14T13:54:57.962Z,924
2023-02-14T13:56:12.444Z,923
2023-02-14T13:57:34.397Z,932
2023-02-14T13:58:27.494Z,934
2023-02-14T13:59:39.575Z,940
2023-02-14T14:00:52.037Z,942
2023-02-14T14:02:03.974Z,941
2023-02-14T14:03:06.984Z,939
2023-02-14T14:04:18.881Z,937
2023-02-14T14:05:31.520Z,930
2023-02-14T14:06:43.402Z,930
2023-02-14T14:07:46.512Z,932
2023-02-14T14:08:58.392Z,934
2023-02-14T14:10:11.162Z,935
2023-02-14T14:11:13.628Z,935
2023-02-14T14:12:26.537Z,932
2023-02-14T14:13:38.421Z,927
2023-02-14T14:14:51.032Z,924
2023-02-14T14:15:53.059Z,925
2023-02-14T14:17:05.497Z,926
2023-02-14T14:18:17.367Z,928
2023-02-14T14:19:20.007Z,930
2023-02-14T14:20:31.874Z,931
2023-02-14T14:21:44.547Z,930
2023-02-14T14:22:56.481Z,931
2023-02-14T14:23:59.540Z,929
2023-02-14T14:25:11.347Z,924
2023-02-14T14:26:24.024Z,920
2023-02-14T14:27:35.963Z,925
2023-02-14T14:28:39.057Z,930
2023-02-14T14:29:50.979Z,935
2023-02-14T14:31:03.529Z,938
2023-02-14T14:32:15.522Z,943
2023-02-14T14:33:18.515Z,945
2023-02-14T14:34:30.388Z,952
2023-02-14T14:35:43.081Z,954
2023-02-14T14:36:54.926Z,957
2023-02-14T14:37:57.558Z,955
2023-02-14T14:39:09.438Z,957
2023-02-14T14:40:22.054Z,959
2023-02-14T14:41:33.898Z,964
2023-02-14T14:42:36.581Z,964
2023-02-14T14:43:48.408Z,961
2023-02-14T14:45:01.022Z,961
2023-02-14T14:46:12.966Z,964
2023-02-14T14:47:16.028Z,962
2023-02-14T14:48:27.832Z,962
2023-02-14T14:49:40.536Z,958
2023-02-14T14:50:42.556Z,958
2023-02-14T14:51:55.007Z,958
2023-02-14T14:53:06.822Z,956
2023-02-14T14:54:19.520Z,956
2023-02-14T14:55:21.512Z,952
2023-02-14T14:56:34.057Z,952
2023-02-14T14:57:45.785Z,951
2023-02-14T14:58:58.520Z,950
2023-02-14T15:00:00.515Z,949
2023-02-14T15:01:13.579Z,946
2023-02-14T15:02:25.377Z,945
2023-02-14T15:03:38.064Z,945
2023-02-14T15:04:40.112Z,945
2023-02-14T15:05:53.027Z,941
2023-02-14T15:07:04.828Z,939
2023-02-14T15:08:17.525Z,938
2023-02-14T15:09:20.492Z,938
2023-02-14T15:10:34.560Z,935
2023-02-14T15:11:46.353Z,937
2023-02-14T15:12:49.039Z,934
2023-02-14T15:14:00.859Z,929
2023-02-14T15:15:14.085Z,927
2023-02-14T15:16:16.121Z,926
2023-02-14T15:17:29.036Z,927
2023-02-14T15:18:41.079Z,923
2023-02-14T15:19:53.550Z,926
2023-02-14T15:20:55.481Z,923
2023-02-14T15:22:08.063Z,923
2023-02-14T15:23:19.877Z,921
2023-02-14T15:24:42.577Z,921
2023-02-14T15:25:34.825Z,922
2023-02-14T15:26:47.628Z,923
2023-02-14T15:27:59.445Z,921
2023-02-14T15:29:12.028Z,919
2023-02-14T15:30:14.042Z,916
2023-02-14T15:31:26.660Z,914
2023-02-14T15:32:48.595Z,912
2023-02-14T15:33:51.572Z,910
2023-02-14T15:34:53.785Z,909
2023-02-14T15:36:06.648Z,911
2023-02-14T15:37:18.512Z,908
2023-02-14T15:38:31.055Z,907
2023-02-14T15:39:33.084Z,907
2023-02-14T15:40:45.581Z,902
2023-02-14T15:41:57.420Z,901
2023-02-14T15:43:10.088Z,898
2023-02-14T15:44:12.222Z,899
2023-02-14T15:45:25.076Z,897
2023-02-14T15:46:37.231Z,894
2023-02-14T15:47:40.062Z,893
2023-02-14T15:48:51.921Z,895
2023-02-14T15:50:04.680Z,897
2023-02-14T15:51:16.557Z,896
2023-02-14T15:52:19.538Z,896
2023-02-14T15:53:31.426Z,893
2023-02-14T15:54:44.084Z,892
2023-02-14T15:55:55.970Z,891
2023-02-14T15:56:58.563Z,889
2023-02-14T15:58:10.468Z,885